Time;durP1;ratioP1;P1;durP2;ratioP2;P2;SDS_P1;SDS_P2;PMS_P1;PMS_P2;Temp;Humidity;BMP_temperature;BMP_pressure;BME280_temperature;BME280_humidity;BME280_pressure;Samples;Min_cycle;Max_cycle;Signal;HPM_P1;HPM_P2
2023/09/09 00:00:36;;;;;;;10.82;9.95;;;18.40;99.90;;;;;;6118902;23;20747;-64
2023/09/09 00:03:02;;;;;;;9.82;8.93;;;18.30;99.90;;;;;;6119585;23;20010;-63
2023/09/09 00:05:33;;;;;;;8.13;7.50;;;18.30;99.90;;;;;;6089838;23;20022;-64
2023/09/09 00:07:59;;;;;;;8.68;7.78;;;18.30;99.90;;;;;;6092211;23;20014;-63
2023/09/09 00:10:24;;;;;;;8.30;7.47;;;18.20;99.90;;;;;;6093009;23;20018;-63
2023/09/09 00:12:50;;;;;;;9.50;8.70;;;18.20;99.90;;;;;;6092869;23;20457;-63
2023/09/09 00:15:15;;;;;;;9.15;8.48;;;18.20;99.90;;;;;;6118216;23;20017;-63
2023/09/09 00:17:41;;;;;;;10.23;8.48;;;18.20;99.90;;;;;;6117205;23;20052;-63
2023/09/09 00:20:09;;;;;;;9.55;8.68;;;18.20;99.90;;;;;;6115046;23;20038;-64
2023/09/09 00:22:34;;;;;;;9.07;8.07;;;18.20;99.90;;;;;;6092720;23;20391;-64
2023/09/09 00:25:00;;;;;;;9.80;8.85;;;18.20;99.90;;;;;;6118621;23;20088;-63
2023/09/09 00:27:25;;;;;;;9.38;8.65;;;18.20;99.90;;;;;;6117735;23;20089;-63
2023/09/09 00:29:51;;;;;;;10.95;9.27;;;18.20;99.90;;;;;;6092009;23;20064;-64
2023/09/09 00:32:16;;;;;;;9.40;8.55;;;18.10;99.90;;;;;;6117109;23;20018;-64
2023/09/09 00:34:42;;;;;;;10.00;9.00;;;18.10;99.90;;;;;;6118176;23;20037;-64
2023/09/09 00:37:08;;;;;;;8.90;8.10;;;18.00;99.90;;;;;;6091766;23;20084;-64
2023/09/09 00:39:34;;;;;;;9.82;8.85;;;18.00;99.90;;;;;;6091566;23;20010;-64
2023/09/09 00:41:59;;;;;;;11.00;9.90;;;17.90;99.90;;;;;;6091558;23;20074;-64
2023/09/09 00:44:25;;;;;;;12.68;8.10;;;18.00;99.90;;;;;;6117631;23;20128;-63
2023/09/09 00:46:51;;;;;;;11.55;9.57;;;17.90;99.90;;;;;;6091281;23;20148;-64
2023/09/09 00:49:17;;;;;;;10.30;9.27;;;17.90;99.90;;;;;;6091767;23;20018;-63
2023/09/09 00:51:44;;;;;;;10.38;9.43;;;17.90;99.90;;;;;;6116227;23;20032;-63
2023/09/09 00:54:11;;;;;;;8.80;7.97;;;17.80;99.90;;;;;;6092925;23;20018;-63
2023/09/09 00:56:37;;;;;;;9.73;8.93;;;17.80;99.90;;;;;;6092144;23;20022;-64
2023/09/09 00:59:04;;;;;;;9.18;8.15;;;17.80;99.90;;;;;;6118252;23;20467;-64
2023/09/09 01:01:31;;;;;;;9.57;8.77;;;17.80;99.90;;;;;;6090269;23;20018;-63
2023/09/09 01:03:57;;;;;;;9.98;8.77;;;17.80;99.90;;;;;;6092061;23;20460;-64
2023/09/09 01:06:23;;;;;;;9.00;8.30;;;17.80;99.90;;;;;;6091715;23;20018;-64
2023/09/09 01:08:49;;;;;;;10.35;9.38;;;17.70;99.90;;;;;;6117585;23;20471;-63
2023/09/09 01:11:14;;;;;;;10.85;9.13;;;17.70;99.90;;;;;;6092797;23;20018;-64
2023/09/09 01:13:40;;;;;;;9.75;8.82;;;17.80;99.90;;;;;;6093135;23;20053;-64
2023/09/09 01:16:06;;;;;;;9.52;8.60;;;17.80;99.90;;;;;;6119038;23;20022;-64
2023/09/09 01:18:34;;;;;;;8.40;7.78;;;17.70;99.90;;;;;;6092744;23;20021;-64
2023/09/09 01:21:19;;;;;;;8.85;8.10;;;17.70;99.90;;;;;;6091792;23;20021;-64
2023/09/09 01:23:45;;;;;;;9.63;8.82;;;17.70;99.90;;;;;;6118223;23;20483;-64
2023/09/09 01:26:10;;;;;;;9.65;8.75;;;17.60;99.90;;;;;;6093448;23;20021;-63
2023/09/09 01:28:36;;;;;;;9.98;9.18;;;17.60;99.90;;;;;;6093218;23;20026;-64
2023/09/09 01:31:02;;;;;;;9.52;8.73;;;17.50;99.90;;;;;;6118229;23;20018;-64
2023/09/09 01:33:27;;;;;;;11.00;8.55;;;17.50;99.90;;;;;;6118260;23;20475;-64
2023/09/09 01:35:53;;;;;;;10.25;9.25;;;17.50;99.90;;;;;;6118081;23;20014;-64
2023/09/09 01:38:19;;;;;;;8.88;8.13;;;17.50;99.90;;;;;;6093577;23;20375;-64
2023/09/09 01:40:44;;;;;;;12.73;10.70;;;17.40;99.90;;;;;;6067048;23;20348;-64
2023/09/09 01:43:10;;;;;;;10.85;9.77;;;17.40;99.90;;;;;;6118270;23;20695;-64
2023/09/09 01:45:36;;;;;;;9.73;8.77;;;17.50;99.90;;;;;;6092849;23;20024;-64
2023/09/09 01:48:01;;;;;;;9.30;8.50;;;17.40;99.90;;;;;;6092336;23;20156;-64
2023/09/09 01:50:27;;;;;;;8.48;7.68;;;17.40;99.90;;;;;;6091569;23;20029;-64
2023/09/09 01:52:53;;;;;;;9.80;7.13;;;17.40;99.90;;;;;;6092912;23;20021;-64
2023/09/09 01:55:18;;;;;;;9.45;8.65;;;17.40;99.90;;;;;;6116556;23;20047;-63
2023/09/09 01:57:44;;;;;;;10.10;8.93;;;17.40;99.90;;;;;;6092919;23;20442;-64
2023/09/09 02:00:11;;;;;;;9.25;8.35;;;17.40;99.90;;;;;;6091447;23;20018;-64
2023/09/09 02:02:37;;;;;;;9.10;8.25;;;17.40;99.90;;;;;;6118172;23;20021;-64
2023/09/09 02:05:03;;;;;;;9.93;8.93;;;17.30;99.90;;;;;;6118666;23;20014;-64
2023/09/09 02:07:28;;;;;;;10.70;9.68;;;17.40;99.90;;;;;;6118833;23;20022;-64
2023/09/09 02:09:54;;;;;;;9.10;8.32;;;17.30;99.90;;;;;;6092861;23;20054;-64
2023/09/09 02:12:19;;;;;;;10.50;9.43;;;17.40;99.90;;;;;;6092131;23;20022;-64
2023/09/09 02:14:45;;;;;;;11.00;9.90;;;17.30;99.90;;;;;;6120047;23;20809;-64
2023/09/09 02:17:12;;;;;;;10.02;9.13;;;17.30;99.90;;;;;;6092303;23;20041;-64
2023/09/09 02:19:38;;;;;;;12.75;11.48;;;17.30;99.90;;;;;;6117518;23;20349;-64
2023/09/09 02:22:04;;;;;;;11.55;10.55;;;17.30;99.90;;;;;;6117759;23;20089;-64
2023/09/09 02:24:30;;;;;;;11.35;10.32;;;17.30;99.90;;;;;;6092827;23;20507;-64
2023/09/09 02:26:56;;;;;;;12.07;10.88;;;17.40;99.90;;;;;;6093442;23;20017;-64
2023/09/09 02:29:21;;;;;;;12.45;11.18;;;17.40;99.90;;;;;;6092154;23;20032;-64
2023/09/09 02:31:47;;;;;;;10.82;9.85;;;17.40;99.90;;;;;;6116013;23;20181;-64
2023/09/09 02:34:13;;;;;;;11.30;10.13;;;17.40;99.90;;;;;;6118527;23;20025;-64
2023/09/09 02:36:44;;;;;;;10.95;9.20;;;17.40;99.90;;;;;;6093042;23;20097;-64
2023/09/09 02:39:10;;;;;;;11.07;10.18;;;17.30;99.90;;;;;;6117715;23;20097;-64
2023/09/09 02:41:35;;;;;;;9.60;8.73;;;17.30;99.90;;;;;;6118525;23;20010;-64
2023/09/09 02:44:01;;;;;;;10.18;9.35;;;17.20;99.90;;;;;;6092850;23;20447;-64
2023/09/09 02:46:27;;;;;;;11.63;9.98;;;17.10;99.90;;;;;;6118186;23;20076;-64
2023/09/09 02:48:52;;;;;;;12.40;11.32;;;17.20;99.90;;;;;;6092948;23;20032;-64
2023/09/09 02:51:18;;;;;;;11.10;9.75;;;17.20;99.90;;;;;;6118833;23;20029;-64
2023/09/09 02:53:43;;;;;;;14.05;11.40;;;17.20;99.90;;;;;;6119173;23;20014;-64
2023/09/09 02:56:09;;;;;;;12.13;11.10;;;17.10;99.90;;;;;;6093077;23;20018;-64
2023/09/09 02:58:35;;;;;;;11.70;10.68;;;17.20;99.90;;;;;;6118572;23;20463;-64
2023/09/09 03:01:05;;;;;;;16.35;12.10;;;17.20;99.90;;;;;;6093072;23;20014;-64
2023/09/09 03:03:31;;;;;;;12.80;11.63;;;17.20;99.90;;;;;;6092127;23;20014;-64
2023/09/09 03:05:57;;;;;;;15.63;14.13;;;17.20;99.90;;;;;;6118851;23;20087;-64
2023/09/09 03:08:23;;;;;;;13.35;12.13;;;17.20;99.90;;;;;;6120117;23;20014;-64
2023/09/09 03:10:49;;;;;;;11.40;10.43;;;17.20;99.90;;;;;;6116983;23;20016;-64
2023/09/09 03:13:14;;;;;;;11.27;10.20;;;17.20;99.90;;;;;;6118161;23;20046;-64
2023/09/09 03:15:40;;;;;;;12.38;11.15;;;17.20;99.90;;;;;;6091982;23;20472;-64
2023/09/09 03:18:05;;;;;;;12.88;11.73;;;17.20;99.90;;;;;;6119083;23;20014;-64
2023/09/09 03:20:31;;;;;;;13.32;11.88;;;17.10;99.90;;;;;;6114989;23;20017;-64
2023/09/09 03:22:59;;;;;;;13.60;11.75;;;17.10;99.90;;;;;;6118751;23;20006;-64
2023/09/09 03:25:24;;;;;;;11.40;10.32;;;17.10;99.90;;;;;;6092911;23;20507;-64
2023/09/09 03:27:50;;;;;;;10.93;9.95;;;17.00;99.90;;;;;;6092953;23;20014;-64
2023/09/09 03:30:15;;;;;;;12.05;10.88;;;17.00;99.90;;;;;;6091186;23;20022;-64
2023/09/09 03:32:41;;;;;;;13.23;11.93;;;17.00;99.90;;;;;;6092938;23;20072;-64
2023/09/09 03:35:07;;;;;;;12.07;11.07;;;17.00;99.90;;;;;;6091780;23;20440;-64
2023/09/09 03:37:33;;;;;;;11.82;10.82;;;17.00;99.90;;;;;;6117579;23;20328;-64
2023/09/09 03:39:58;;;;;;;13.05;11.80;;;17.00;99.90;;;;;;6118148;23;20017;-64
2023/09/09 03:42:24;;;;;;;12.02;11.05;;;16.90;99.90;;;;;;6091695;23;20018;-64
2023/09/09 03:44:49;;;;;;;12.05;10.05;;;16.90;99.90;;;;;;6118785;23;20336;-64
2023/09/09 03:47:15;;;;;;;11.57;10.68;;;16.90;99.90;;;;;;6091790;23;20099;-64
2023/09/09 03:49:40;;;;;;;13.68;12.50;;;16.90;99.90;;;;;;6117010;23;20021;-64
2023/09/09 03:52:06;;;;;;;14.68;13.35;;;16.90;99.90;;;;;;6116635;23;20072;-64
2023/09/09 03:54:32;;;;;;;14.45;13.07;;;16.90;99.90;;;;;;6093123;23;20448;-64
2023/09/09 03:56:57;;;;;;;14.07;12.80;;;16.90;99.90;;;;;;6117368;23;20026;-64
2023/09/09 03:59:24;;;;;;;17.52;15.73;;;16.90;99.90;;;;;;6118597;23;20010;-64
2023/09/09 04:01:49;;;;;;;19.67;17.92;;;16.90;99.90;;;;;;6091411;23;20022;-64
2023/09/09 04:04:15;;;;;;;20.70;18.60;;;16.90;99.90;;;;;;6118380;23;20014;-64
2023/09/09 04:06:40;;;;;;;22.13;20.13;;;16.90;99.90;;;;;;6117709;23;20022;-64
2023/09/09 04:09:06;;;;;;;24.73;22.17;;;17.00;99.90;;;;;;6116529;23;20021;-64
2023/09/09 04:11:31;;;;;;;19.23;17.45;;;17.00;99.90;;;;;;6091446;23;20022;-64
2023/09/09 04:13:59;;;;;;;13.05;11.88;;;17.00;99.90;;;;;;6092500;23;20445;-64
2023/09/09 04:16:25;;;;;;;13.43;12.32;;;17.00;99.90;;;;;;6117683;23;20014;-64
2023/09/09 04:18:50;;;;;;;14.05;12.65;;;17.00;99.90;;;;;;6092047;23;20020;-64
2023/09/09 04:21:16;;;;;;;18.55;16.70;;;16.90;99.90;;;;;;6117043;23;20020;-64
2023/09/09 04:23:41;;;;;;;14.80;13.23;;;16.90;99.90;;;;;;6068464;23;20109;-64
2023/09/09 04:26:07;;;;;;;13.88;12.63;;;16.80;99.90;;;;;;6117173;23;20026;-64
2023/09/09 04:28:32;;;;;;;12.48;11.27;;;16.80;99.90;;;;;;6116691;23;20014;-64
2023/09/09 04:30:58;;;;;;;16.98;12.65;;;16.80;99.90;;;;;;6117407;23;20109;-64
2023/09/09 04:33:24;;;;;;;14.68;13.48;;;16.70;99.90;;;;;;6091200;23;20020;-64
2023/09/09 04:35:49;;;;;;;12.43;11.43;;;16.70;99.90;;;;;;6116710;23;20330;-64
2023/09/09 04:38:15;;;;;;;16.08;14.40;;;16.70;99.90;;;;;;6117862;23;20018;-64
2023/09/09 04:40:41;;;;;;;15.35;14.02;;;16.70;99.90;;;;;;6115939;23;20022;-64
2023/09/09 04:43:07;;;;;;;17.52;15.88;;;16.70;99.90;;;;;;6091871;23;20496;-64
2023/09/09 04:45:32;;;;;;;19.40;15.50;;;16.70;99.90;;;;;;6118967;23;20017;-64
2023/09/09 04:47:58;;;;;;;16.92;15.40;;;16.70;99.90;;;;;;6093005;23;20348;-64
2023/09/09 04:50:24;;;;;;;15.48;14.13;;;16.70;99.90;;;;;;6118428;23;20040;-64
2023/09/09 04:52:49;;;;;;;22.70;20.40;;;16.70;99.90;;;;;;6119125;23;20010;-64
2023/09/09 04:55:15;;;;;;;16.10;12.65;;;16.70;99.90;;;;;;6069356;23;20085;-64
2023/09/09 04:57:41;;;;;;;13.57;12.23;;;16.60;99.90;;;;;;6119294;23;20076;-64
2023/09/09 05:00:09;;;;;;;15.18;13.68;;;16.60;99.90;;;;;;6117632;23;20437;-64
2023/09/09 05:02:36;;;;;;;20.65;18.73;;;16.60;99.90;;;;;;6093285;23;20032;-64
2023/09/09 05:05:04;;;;;;;18.30;15.65;;;16.60;99.90;;;;;;6117728;23;20396;-63
2023/09/09 05:07:31;;;;;;;15.82;14.13;;;16.60;99.90;;;;;;6067877;23;20022;-64
2023/09/09 05:09:57;;;;;;;17.55;16.00;;;16.60;99.90;;;;;;6093879;23;20025;-64
2023/09/09 05:12:23;;;;;;;19.65;17.85;;;16.60;99.90;;;;;;6119753;23;20014;-64
2023/09/09 05:14:48;;;;;;;15.63;13.93;;;16.60;99.90;;;;;;6092418;23;20084;-63
2023/09/09 05:17:14;;;;;;;24.90;22.65;;;16.70;99.90;;;;;;6092684;23;20032;-64
2023/09/09 05:19:39;;;;;;;19.70;17.75;;;16.70;99.90;;;;;;6092280;23;20041;-64
2023/09/09 05:22:05;;;;;;;18.95;17.17;;;16.80;99.90;;;;;;6091793;23;20044;-64
2023/09/09 05:24:30;;;;;;;18.98;16.98;;;16.80;99.90;;;;;;6117175;23;20041;-63
2023/09/09 05:26:56;;;;;;;18.80;16.85;;;16.80;99.90;;;;;;6117032;23;20340;-63
2023/09/09 05:29:22;;;;;;;17.35;15.68;;;16.90;99.90;;;;;;6117515;23;20018;-63
2023/09/09 05:31:47;;;;;;;21.10;15.60;;;17.00;99.90;;;;;;6092542;23;20022;-63
2023/09/09 05:34:13;;;;;;;17.55;15.77;;;17.10;99.90;;;;;;6118110;23;20021;-63
2023/09/09 05:36:38;;;;;;;19.52;17.48;;;17.30;99.90;;;;;;6117809;23;20076;-63
2023/09/09 05:39:04;;;;;;;19.83;17.92;;;17.40;99.90;;;;;;6090506;23;20067;-63
2023/09/09 05:41:30;;;;;;;18.45;16.65;;;17.60;99.90;;;;;;6116504;23;20509;-63
2023/09/09 05:43:56;;;;;;;17.65;16.08;;;17.60;99.90;;;;;;6092023;23;20060;-63
2023/09/09 05:46:22;;;;;;;18.75;16.98;;;17.80;99.90;;;;;;6066228;23;20030;-63
2023/09/09 05:48:47;;;;;;;19.23;17.52;;;17.90;99.90;;;;;;6117688;23;20068;-63
2023/09/09 05:51:13;;;;;;;20.63;18.48;;;18.00;99.90;;;;;;6118953;23;20014;-63
2023/09/09 05:53:41;;;;;;;18.73;16.83;;;18.20;99.90;;;;;;6119088;23;20063;-63
2023/09/09 05:56:06;;;;;;;16.58;15.07;;;18.50;99.90;;;;;;6119092;23;20052;-64
2023/09/09 05:58:33;;;;;;;15.10;13.70;;;19.10;99.90;;;;;;6091923;23;20022;-63
2023/09/09 06:00:59;;;;;;;16.95;15.55;;;20.00;99.90;;;;;;6120282;23;20006;-64
2023/09/09 06:03:26;;;;;;;14.77;13.30;;;21.00;99.90;;;;;;6119510;23;20411;-63
2023/09/09 06:05:51;;;;;;;16.52;14.93;;;22.00;99.90;;;;;;6092626;23;20029;-64
2023/09/09 06:08:17;;;;;;;17.65;16.10;;;22.80;99.90;;;;;;6118932;23;20014;-64
2023/09/09 06:10:43;;;;;;;17.92;16.40;;;23.50;99.90;;;;;;6119467;23;20014;-64
2023/09/09 06:13:09;;;;;;;14.85;13.45;;;24.20;99.90;;;;;;6091480;23;20025;-64
2023/09/09 06:15:34;;;;;;;16.80;15.02;;;25.00;99.90;;;;;;6118695;23;20028;-64
2023/09/09 06:18:00;;;;;;;17.08;15.48;;;25.90;99.90;;;;;;6118108;23;20114;-64
2023/09/09 06:20:26;;;;;;;16.85;15.40;;;26.40;99.90;;;;;;6067909;23;20018;-64
2023/09/09 06:22:52;;;;;;;18.27;15.75;;;27.10;99.90;;;;;;6118416;23;20341;-64
2023/09/09 06:25:18;;;;;;;26.17;15.57;;;27.80;99.90;;;;;;6092786;23;20022;-63
2023/09/09 06:27:44;;;;;;;15.77;14.35;;;28.50;99.90;;;;;;6115336;23;20014;-64
2023/09/09 06:30:10;;;;;;;18.75;15.10;;;29.40;99.90;;;;;;6116491;23;20084;-64
2023/09/09 06:32:36;;;;;;;16.33;14.73;;;30.10;99.90;;;;;;6092159;23;20014;-64
2023/09/09 06:35:03;;;;;;;23.58;16.10;;;30.70;99.90;;;;;;6117615;23;20025;-64
2023/09/09 06:37:28;;;;;;;20.63;15.90;;;31.10;99.90;;;;;;6090335;23;20018;-64
2023/09/09 06:39:54;;;;;;;27.15;16.55;;;31.40;99.90;;;;;;6092165;23;20014;-64
2023/09/09 06:42:21;;;;;;;30.35;16.42;;;31.50;99.90;;;;;;6119148;23;20014;-64
2023/09/09 06:44:47;;;;;;;28.58;17.15;;;31.40;99.70;;;;;;6117486;23;20009;-64
2023/09/09 06:47:12;;;;;;;19.23;17.30;;;30.70;99.30;;;;;;6091327;23;20433;-65
2023/09/09 06:49:38;;;;;;;22.15;17.38;;;30.10;99.30;;;;;;6091673;23;20029;-65
2023/09/09 06:52:04;;;;;;;17.67;16.08;;;29.70;99.70;;;;;;6092935;23;20014;-65
2023/09/09 06:54:30;;;;;;;20.80;18.67;;;29.20;99.90;;;;;;6090398;23;20036;-65
2023/09/09 06:56:55;;;;;;;22.50;20.15;;;28.90;99.90;;;;;;6117261;23;20022;-65
2023/09/09 06:59:21;;;;;;;23.67;19.00;;;28.50;99.90;;;;;;6091457;23;20018;-65
2023/09/09 07:01:47;;;;;;;20.67;18.67;;;28.00;99.90;;;;;;6092045;23;20456;-64
2023/09/09 07:04:13;;;;;;;20.88;18.85;;;27.50;99.90;;;;;;6094012;23;20014;-64
2023/09/09 07:06:38;;;;;;;21.48;19.48;;;26.90;99.90;;;;;;6119357;23;20494;-64
2023/09/09 07:09:04;;;;;;;23.20;21.10;;;26.40;99.90;;;;;;6118323;23;20510;-64
2023/09/09 07:11:30;;;;;;;21.52;19.70;;;25.90;99.90;;;;;;6092444;23;20348;-65
2023/09/09 07:13:55;;;;;;;23.35;20.90;;;25.40;99.90;;;;;;6119505;23;20341;-64
2023/09/09 07:16:22;;;;;;;23.45;21.15;;;25.00;99.90;;;;;;6118899;23;20014;-65
2023/09/09 07:18:47;;;;;;;23.38;21.08;;;24.80;99.90;;;;;;6116724;23;20500;-65
2023/09/09 07:21:13;;;;;;;23.98;21.50;;;24.50;99.90;;;;;;6117836;23;20037;-64
2023/09/09 07:23:39;;;;;;;23.50;21.17;;;24.20;99.90;;;;;;6118395;23;20017;-65
2023/09/09 07:26:05;;;;;;;25.00;22.33;;;24.10;99.90;;;;;;6118875;23;20014;-65
2023/09/09 07:28:31;;;;;;;36.22;22.92;;;24.10;99.90;;;;;;6092143;23;20068;-65
2023/09/09 07:31:04;;;;;;;22.60;20.50;;;23.90;99.90;;;;;;6091857;23;20543;-65
2023/09/09 07:33:30;;;;;;;23.17;21.08;;;23.80;99.90;;;;;;6115099;23;20449;-66
2023/09/09 07:35:55;;;;;;;24.00;21.90;;;23.70;99.90;;;;;;6115618;23;20017;-65
2023/09/09 07:38:21;;;;;;;24.65;21.83;;;23.60;99.90;;;;;;6090826;23;20037;-65
2023/09/09 07:40:47;;;;;;;23.92;21.73;;;23.50;99.90;;;;;;6115775;23;20021;-66
2023/09/09 07:43:14;;;;;;;23.48;21.38;;;23.40;99.90;;;;;;6118334;23;20021;-65
2023/09/09 07:45:49;;;;;;;26.17;23.45;;;23.30;99.90;;;;;;6091930;23;20010;-66
2023/09/09 07:48:15;;;;;;;24.05;21.85;;;23.30;99.90;;;;;;6092496;23;20041;-65
2023/09/09 07:50:41;;;;;;;25.00;22.90;;;23.20;99.90;;;;;;6115900;23;20068;-65
2023/09/09 07:53:07;;;;;;;25.52;23.42;;;23.20;99.90;;;;;;6118468;23;20349;-65
2023/09/09 07:55:33;;;;;;;26.55;24.25;;;23.20;99.90;;;;;;6117671;23;20132;-65
2023/09/09 07:57:58;;;;;;;25.92;23.38;;;23.10;99.90;;;;;;6092897;23;20457;-65
2023/09/09 08:00:24;;;;;;;24.92;22.63;;;23.20;99.90;;;;;;6090949;23;20017;-65
2023/09/09 08:02:49;;;;;;;28.10;25.70;;;23.20;99.90;;;;;;6118069;23;20014;-65
2023/09/09 08:05:16;;;;;;;27.08;24.80;;;23.40;99.90;;;;;;6091786;23;20014;-66
2023/09/09 08:07:41;;;;;;;26.15;23.95;;;23.40;99.90;;;;;;6091569;23;20018;-66
2023/09/09 08:10:09;;;;;;;28.27;25.75;;;23.50;99.90;;;;;;6089879;23;20472;-65
2023/09/09 08:12:35;;;;;;;27.95;25.35;;;23.50;99.90;;;;;;6118401;23;20021;-65
2023/09/09 08:15:09;;;;;;;28.73;26.20;;;23.70;99.90;;;;;;6092048;23;20014;-66
2023/09/09 08:17:34;;;;;;;28.42;25.15;;;23.60;99.90;;;;;;6092835;23;20028;-66
2023/09/09 08:20:02;;;;;;;29.38;26.40;;;23.70;99.90;;;;;;6091888;23;20324;-66
2023/09/09 08:22:29;;;;;;;27.90;25.33;;;24.00;99.90;;;;;;6119288;23;20025;-67
2023/09/09 08:24:55;;;;;;;28.88;26.27;;;24.20;99.90;;;;;;6118861;23;20010;-66
2023/09/09 08:27:20;;;;;;;27.90;25.33;;;24.30;99.90;;;;;;6119573;23;20147;-66
2023/09/09 08:29:46;;;;;;;27.92;25.63;;;24.60;99.90;;;;;;6117466;23;20020;-64
2023/09/09 08:32:11;;;;;;;27.42;24.88;;;24.80;99.90;;;;;;6092496;23;20425;-66
2023/09/09 08:34:37;;;;;;;27.98;25.45;;;25.00;99.90;;;;;;6092243;23;20180;-66
2023/09/09 08:37:03;;;;;;;28.63;26.05;;;25.20;99.90;;;;;;6092049;23;20053;-66
2023/09/09 08:39:29;;;;;;;29.17;26.70;;;25.40;99.90;;;;;;6117197;23;20337;-67
2023/09/09 08:42:03;;;;;;;30.73;27.73;;;25.50;99.90;;;;;;6118844;23;20343;-67
2023/09/09 08:44:42;;;;;;;30.15;27.60;;;25.80;99.90;;;;;;6119667;23;20025;-67
2023/09/09 08:47:09;;;;;;;31.17;28.35;;;26.00;99.90;;;;;;6118691;23;20460;-67
2023/09/09 08:49:36;;;;;;;30.58;27.63;;;26.20;99.90;;;;;;6118706;23;20352;-67
2023/09/09 08:52:24;;;;;;;28.25;25.95;;;26.30;99.90;;;;;;6093487;23;20131;-67
2023/09/09 08:54:52;;;;;;;30.10;27.23;;;26.50;99.90;;;;;;6119952;23;20022;-67
2023/09/09 08:57:17;;;;;;;30.40;27.77;;;26.70;99.90;;;;;;6118490;23;20441;-66
2023/09/09 08:59:46;;;;;;;28.15;25.52;;;26.90;99.90;;;;;;6092245;23;20075;-67
2023/09/09 09:02:11;;;;;;;27.83;25.25;;;26.90;99.90;;;;;;6119537;23;20010;-67
2023/09/09 09:04:38;;;;;;;28.58;25.98;;;27.10;99.90;;;;;;6093687;23;20028;-67
2023/09/09 09:07:04;;;;;;;26.15;23.75;;;27.20;99.90;;;;;;6093317;23;20050;-66
2023/09/09 09:09:30;;;;;;;27.90;25.13;;;27.40;99.90;;;;;;6091497;23;20022;-66
2023/09/09 09:12:01;;;;;;;26.40;24.10;;;27.40;99.90;;;;;;6090677;23;20024;-66
2023/09/09 09:14:27;;;;;;;25.88;23.55;;;27.50;99.90;;;;;;6115176;23;20464;-67
2023/09/09 09:16:54;;;;;;;25.98;23.50;;;27.60;99.90;;;;;;6118528;23;20018;-67
2023/09/09 09:19:30;;;;;;;25.27;23.17;;;27.70;99.90;;;;;;6093195;23;20018;-66
2023/09/09 09:21:58;;;;;;;24.27;22.00;;;28.00;99.90;;;;;;6118064;23;20038;-66
2023/09/09 09:24:41;;;;;;;25.20;22.88;;;28.20;99.90;;;;;;6093905;23;20068;-66
2023/09/09 09:27:14;;;;;;;23.42;21.27;;;28.30;99.90;;;;;;6092166;23;20021;-67
2023/09/09 09:29:41;;;;;;;21.70;19.75;;;28.40;99.90;;;;;;6092753;23;20072;-66
2023/09/09 09:32:08;;;;;;;20.35;18.65;;;28.60;99.90;;;;;;6118226;23;20388;-67
2023/09/09 09:34:34;;;;;;;22.65;19.27;;;28.70;99.90;;;;;;6117776;23;20076;-66
2023/09/09 09:37:11;;;;;;;20.25;18.55;;;28.80;99.90;;;;;;6091166;23;20014;-67
2023/09/09 09:39:38;;;;;;;19.98;18.17;;;28.90;99.90;;;;;;6118791;23;20010;-66
2023/09/09 09:42:04;;;;;;;19.88;18.00;;;28.90;99.90;;;;;;6118576;23;20018;-66
2023/09/09 09:44:30;;;;;;;19.42;17.45;;;28.90;99.90;;;;;;6118913;23;20508;-66
2023/09/09 09:47:00;;;;;;;17.83;16.13;;;29.10;99.90;;;;;;6091075;23;20109;-67
2023/09/09 09:49:40;;;;;;;18.85;15.77;;;29.20;99.90;;;;;;6119240;23;20071;-66
2023/09/09 09:52:07;;;;;;;17.10;15.55;;;29.30;99.90;;;;;;6091883;23;20026;-66
2023/09/09 09:54:34;;;;;;;16.90;15.43;;;29.40;99.90;;;;;;6093935;23;20014;-66
2023/09/09 09:57:02;;;;;;;15.52;14.02;;;29.40;99.90;;;;;;6091502;23;20791;-66
2023/09/09 09:59:33;;;;;;;14.63;13.43;;;29.50;99.90;;;;;;6117606;23;20022;-67
2023/09/09 10:02:00;;;;;;;16.05;14.35;;;29.60;99.90;;;;;;6091693;23;20087;-66
2023/09/09 10:04:27;;;;;;;13.70;12.52;;;29.80;99.90;;;;;;6093731;23;20066;-66
2023/09/09 10:06:58;;;;;;;11.63;10.63;;;29.80;99.90;;;;;;6118736;23;20093;-67
2023/09/09 10:09:33;;;;;;;13.50;12.20;;;29.80;99.90;;;;;;6116965;23;20017;-66
2023/09/09 10:12:11;;;;;;;12.55;11.45;;;29.90;99.90;;;;;;6118355;23;20028;-66
2023/09/09 10:14:37;;;;;;;13.27;12.07;;;30.00;99.90;;;;;;6093299;23;20022;-66
2023/09/09 10:17:08;;;;;;;12.43;11.32;;;30.10;99.90;;;;;;6092929;23;20022;-66
2023/09/09 10:19:36;;;;;;;12.43;10.93;;;30.20;99.90;;;;;;6091881;23;20021;-66
2023/09/09 10:22:05;;;;;;;13.43;12.32;;;30.30;99.90;;;;;;6118109;23;20010;-66
2023/09/09 10:24:34;;;;;;;12.45;11.40;;;30.40;99.90;;;;;;6119553;23;20168;-66
2023/09/09 10:27:03;;;;;;;14.38;12.88;;;30.50;99.90;;;;;;6117864;23;20079;-66
2023/09/09 10:29:37;;;;;;;14.57;13.07;;;30.50;99.90;;;;;;6116326;23;20089;-66
2023/09/09 10:32:03;;;;;;;15.40;13.90;;;30.60;99.90;;;;;;6118660;23;20344;-66
2023/09/09 10:34:30;;;;;;;14.85;13.45;;;30.70;99.90;;;;;;6119677;23;20030;-66
2023/09/09 10:36:59;;;;;;;16.20;13.63;;;30.70;99.90;;;;;;6092961;23;20026;-66
2023/09/09 10:39:25;;;;;;;14.60;12.88;;;30.70;99.90;;;;;;6091921;23;20089;-66
2023/09/09 10:41:51;;;;;;;14.93;13.40;;;30.70;99.90;;;;;;6091674;23;20093;-66
2023/09/09 10:44:17;;;;;;;14.43;13.13;;;30.80;99.90;;;;;;6091754;23;20014;-66
2023/09/09 10:46:43;;;;;;;14.60;13.20;;;30.90;99.90;;;;;;6116841;23;20383;-66
2023/09/09 10:49:22;;;;;;;13.02;11.90;;;30.90;99.90;;;;;;6117570;23;20018;-66
2023/09/09 10:51:49;;;;;;;13.07;11.85;;;31.00;99.90;;;;;;6092488;23;20017;-66
2023/09/09 10:54:17;;;;;;;14.45;13.35;;;31.00;99.90;;;;;;6116042;23;20010;-66
2023/09/09 10:56:51;;;;;;;17.17;12.85;;;31.00;99.90;;;;;;6117448;23;20076;-66
2023/09/09 10:59:23;;;;;;;11.88;10.65;;;30.80;99.90;;;;;;6117435;23;20105;-66
2023/09/09 11:02:08;;;;;;;14.85;13.45;;;30.90;99.90;;;;;;6090946;23;20120;-66
2023/09/09 11:04:37;;;;;;;13.93;12.18;;;30.90;99.90;;;;;;6118367;23;20025;-66
2023/09/09 11:07:15;;;;;;;13.23;10.88;;;31.00;99.90;;;;;;6092036;23;20037;-68
2023/09/09 11:09:52;;;;;;;10.80;9.88;;;31.10;99.90;;;;;;6090585;23;20785;-68
2023/09/09 11:12:24;;;;;;;22.23;13.00;;;31.10;99.90;;;;;;6091344;23;20026;-67
2023/09/09 11:15:00;;;;;;;13.45;11.77;;;31.00;99.90;;;;;;6067575;23;20076;-71
2023/09/09 11:17:29;;;;;;;14.48;11.73;;;31.00;99.90;;;;;;6118325;23;20049;-68
2023/09/09 11:19:55;;;;;;;13.50;10.38;;;30.90;99.90;;;;;;6117189;23;20014;-69
2023/09/09 11:22:22;;;;;;;10.45;9.45;;;30.90;99.90;;;;;;6092232;23;20045;-69
2023/09/09 11:24:48;;;;;;;11.13;9.50;;;30.90;99.90;;;;;;6118151;23;20068;-69
2023/09/09 11:27:15;;;;;;;9.05;8.32;;;30.90;99.90;;;;;;6090880;23;20018;-69
2023/09/09 11:29:50;;;;;;;11.50;8.93;;;30.90;99.90;;;;;;6090041;23;20021;-69
2023/09/09 11:32:29;;;;;;;14.48;8.65;;;30.90;99.90;;;;;;6117568;23;20045;-71
2023/09/09 11:34:56;;;;;;;8.52;7.40;;;31.00;99.90;;;;;;6115037;23;20611;-70
2023/09/09 11:37:26;;;;;;;6.88;6.28;;;31.00;99.90;;;;;;6116857;23;20430;-71
2023/09/09 11:39:53;;;;;;;8.13;7.32;;;31.10;99.90;;;;;;6115719;23;20383;-70
2023/09/09 11:42:19;;;;;;;12.95;6.25;;;31.00;99.90;;;;;;6090079;23;20029;-71
2023/09/09 11:44:46;;;;;;;10.52;5.85;;;30.90;99.30;;;;;;6118041;23;20048;-70
2023/09/09 11:47:14;;;;;;;6.93;5.45;;;30.90;99.40;;;;;;6092047;23;20018;-70
2023/09/09 11:49:42;;;;;;;6.30;5.70;;;30.90;99.40;;;;;;6091548;23;20113;-70
2023/09/09 11:52:08;;;;;;;6.72;5.32;;;30.90;99.20;;;;;;6118607;23;20345;-70
2023/09/09 11:54:34;;;;;;;8.60;6.35;;;31.00;99.40;;;;;;6119501;23;20014;-69
2023/09/09 11:57:07;;;;;;;7.90;5.75;;;31.00;99.60;;;;;;6116915;23;20021;-69
2023/09/09 11:59:54;;;;;;;8.93;5.65;;;31.20;99.10;;;;;;6118069;23;20014;-66
2023/09/09 12:02:24;;;;;;;16.05;5.43;;;31.10;98.70;;;;;;6118166;23;20368;-65
2023/09/09 12:04:54;;;;;;;9.18;5.13;;;31.10;98.60;;;;;;6119103;23;20020;-65
2023/09/09 12:07:22;;;;;;;10.20;5.25;;;31.10;98.50;;;;;;6091306;23;20063;-65
2023/09/09 12:09:47;;;;;;;8.35;5.38;;;31.00;98.70;;;;;;6090821;23;20090;-65
2023/09/09 12:12:14;;;;;;;5.20;4.43;;;30.90;98.10;;;;;;6092331;23;20449;-65
2023/09/09 12:14:40;;;;;;;9.00;6.13;;;30.80;98.20;;;;;;6117720;23;20082;-65
2023/09/09 12:17:05;;;;;;;5.50;4.85;;;30.80;97.70;;;;;;6090703;23;20019;-65
2023/09/09 12:19:31;;;;;;;8.27;4.80;;;30.80;98.10;;;;;;6090692;23;20015;-66
2023/09/09 12:21:57;;;;;;;6.57;5.93;;;30.80;98.20;;;;;;6091573;23;20017;-65
2023/09/09 12:24:22;;;;;;;5.28;4.78;;;30.80;97.50;;;;;;6092251;23;20094;-65
2023/09/09 12:26:52;;;;;;;6.57;5.97;;;30.70;97.30;;;;;;6117940;23;20121;-65
2023/09/09 12:29:18;;;;;;;5.15;4.68;;;30.80;97.50;;;;;;6117415;23;20053;-66